sensor_id;sensor_type;location;lat;lon;timestamp;P1;P2;P0
28026;PMS5003;15344;52.342;-1.290;2024-01-25T00:01:14;11;8;
28026;PMS5003;15344;52.342;-1.290;2024-01-25T00:03:39;14;7;
28026;PMS5003;15344;52.342;-1.290;2024-01-25T00:06:05;15;11;
28026;PMS5003;15344;52.342;-1.290;2024-01-25T00:08:30;10;7;
28026;PMS5003;15344;52.342;-1.290;2024-01-25T00:10:55;12;8;
28026;PMS5003;15344;52.342;-1.290;2024-01-25T00:13:20;18;10;
28026;PMS5003;15344;52.342;-1.290;2024-01-25T00:15:46;12;7;
28026;PMS5003;15344;52.342;-1.290;2024-01-25T00:18:11;18;10;
28026;PMS5003;15344;52.342;-1.290;2024-01-25T00:20:37;15;8;
28026;PMS5003;15344;52.342;-1.290;2024-01-25T00:23:03;10;8;
28026;PMS5003;15344;52.342;-1.290;2024-01-25T00:25:28;8;8;
28026;PMS5003;15344;52.342;-1.290;2024-01-25T00:27:53;13;9;
28026;PMS5003;15344;52.342;-1.290;2024-01-25T00:30:18;12;6;
28026;PMS5003;15344;52.342;-1.290;2024-01-25T00:32:44;13;6;
28026;PMS5003;15344;52.342;-1.290;2024-01-25T00:35:09;14;8;
28026;PMS5003;15344;52.342;-1.290;2024-01-25T00:37:35;7;5;
28026;PMS5003;15344;52.342;-1.290;2024-01-25T00:40:00;10;9;
28026;PMS5003;15344;52.342;-1.290;2024-01-25T00:42:26;10;7;
28026;PMS5003;15344;52.342;-1.290;2024-01-25T00:44:51;8;5;
28026;PMS5003;15344;52.342;-1.290;2024-01-25T00:47:16;17;9;
28026;PMS5003;15344;52.342;-1.290;2024-01-25T00:49:42;15;10;
28026;PMS5003;15344;52.342;-1.290;2024-01-25T00:52:08;15;9;
28026;PMS5003;15344;52.342;-1.290;2024-01-25T00:54:33;18;7;
28026;PMS5003;15344;52.342;-1.290;2024-01-25T00:56:58;16;9;
28026;PMS5003;15344;52.342;-1.290;2024-01-25T00:59:24;9;6;
28026;PMS5003;15344;52.342;-1.290;2024-01-25T01:01:49;7;7;
28026;PMS5003;15344;52.342;-1.290;2024-01-25T01:04:15;11;8;
28026;PMS5003;15344;52.342;-1.290;2024-01-25T01:06:40;12;7;
28026;PMS5003;15344;52.342;-1.290;2024-01-25T01:09:06;10;8;
28026;PMS5003;15344;52.342;-1.290;2024-01-25T01:11:31;15;9;
28026;PMS5003;15344;52.342;-1.290;2024-01-25T01:13:56;19;10;
28026;PMS5003;15344;52.342;-1.290;2024-01-25T01:16:21;14;7;
28026;PMS5003;15344;52.342;-1.290;2024-01-25T01:18:47;10;9;
28026;PMS5003;15344;52.342;-1.290;2024-01-25T01:21:12;9;8;
28026;PMS5003;15344;52.342;-1.290;2024-01-25T01:23:38;16;8;
28026;PMS5003;15344;52.342;-1.290;2024-01-25T01:26:03;14;10;
28026;PMS5003;15344;52.342;-1.290;2024-01-25T01:28:29;11;11;
28026;PMS5003;15344;52.342;-1.290;2024-01-25T01:30:54;17;7;
28026;PMS5003;15344;52.342;-1.290;2024-01-25T01:33:20;11;5;
28026;PMS5003;15344;52.342;-1.290;2024-01-25T01:35:45;14;8;
28026;PMS5003;15344;52.342;-1.290;2024-01-25T01:38:10;9;9;
28026;PMS5003;15344;52.342;-1.290;2024-01-25T01:40:35;15;12;
28026;PMS5003;15344;52.342;-1.290;2024-01-25T01:43:01;16;8;
28026;PMS5003;15344;52.342;-1.290;2024-01-25T01:45:26;13;9;
28026;PMS5003;15344;52.342;-1.290;2024-01-25T01:47:52;13;6;
28026;PMS5003;15344;52.342;-1.290;2024-01-25T01:50:17;11;7;
28026;PMS5003;15344;52.342;-1.290;2024-01-25T01:52:43;13;7;
28026;PMS5003;15344;52.342;-1.290;2024-01-25T01:55:08;11;6;
28026;PMS5003;15344;52.342;-1.290;2024-01-25T01:57:34;8;7;
28026;PMS5003;15344;52.342;-1.290;2024-01-25T02:00:00;11;7;
28026;PMS5003;15344;52.342;-1.290;2024-01-25T02:02:25;12;10;
28026;PMS5003;15344;52.342;-1.290;2024-01-25T02:04:50;12;6;
28026;PMS5003;15344;52.342;-1.290;2024-01-25T02:07:15;14;8;
28026;PMS5003;15344;52.342;-1.290;2024-01-25T02:09:40;13;7;
28026;PMS5003;15344;52.342;-1.290;2024-01-25T02:12:06;17;7;
28026;PMS5003;15344;52.342;-1.290;2024-01-25T02:14:32;17;8;
28026;PMS5003;15344;52.342;-1.290;2024-01-25T02:16:58;9;8;
28026;PMS5003;15344;52.342;-1.290;2024-01-25T02:19:23;14;10;
28026;PMS5003;15344;52.342;-1.290;2024-01-25T02:21:48;20;13;
28026;PMS5003;15344;52.342;-1.290;2024-01-25T02:24:14;13;8;
28026;PMS5003;15344;52.342;-1.290;2024-01-25T02:26:39;10;7;
28026;PMS5003;15344;52.342;-1.290;2024-01-25T02:29:05;13;8;
28026;PMS5003;15344;52.342;-1.290;2024-01-25T02:31:30;16;10;
28026;PMS5003;15344;52.342;-1.290;2024-01-25T02:33:56;13;7;
28026;PMS5003;15344;52.342;-1.290;2024-01-25T02:36:21;10;8;
28026;PMS5003;15344;52.342;-1.290;2024-01-25T02:38:47;11;9;
28026;PMS5003;15344;52.342;-1.290;2024-01-25T02:41:12;14;8;
28026;PMS5003;15344;52.342;-1.290;2024-01-25T02:43:37;19;9;
28026;PMS5003;15344;52.342;-1.290;2024-01-25T02:46:03;13;9;
28026;PMS5003;15344;52.342;-1.290;2024-01-25T02:48:28;13;7;
28026;PMS5003;15344;52.342;-1.290;2024-01-25T02:50:54;19;9;
28026;PMS5003;15344;52.342;-1.290;2024-01-25T02:53:19;9;5;
28026;PMS5003;15344;52.342;-1.290;2024-01-25T02:55:44;12;7;
28026;PMS5003;15344;52.342;-1.290;2024-01-25T02:58:09;20;10;
28026;PMS5003;15344;52.342;-1.290;2024-01-25T03:00:34;28;10;
28026;PMS5003;15344;52.342;-1.290;2024-01-25T03:03:00;11;8;
28026;PMS5003;15344;52.342;-1.290;2024-01-25T03:05:25;8;6;
28026;PMS5003;15344;52.342;-1.290;2024-01-25T03:07:51;12;7;
28026;PMS5003;15344;52.342;-1.290;2024-01-25T03:10:16;12;9;
28026;PMS5003;15344;52.342;-1.290;2024-01-25T03:12:41;14;6;
28026;PMS5003;15344;52.342;-1.290;2024-01-25T03:15:07;14;9;
28026;PMS5003;15344;52.342;-1.290;2024-01-25T03:17:32;14;8;
28026;PMS5003;15344;52.342;-1.290;2024-01-25T03:19:57;15;7;
28026;PMS5003;15344;52.342;-1.290;2024-01-25T03:22:23;15;8;
28026;PMS5003;15344;52.342;-1.290;2024-01-25T03:24:48;11;7;
28026;PMS5003;15344;52.342;-1.290;2024-01-25T03:27:13;7;7;
28026;PMS5003;15344;52.342;-1.290;2024-01-25T03:29:40;12;11;
28026;PMS5003;15344;52.342;-1.290;2024-01-25T03:32:04;13;9;
28026;PMS5003;15344;52.342;-1.290;2024-01-25T03:34:29;15;7;
28026;PMS5003;15344;52.342;-1.290;2024-01-25T03:36:55;12;8;
28026;PMS5003;15344;52.342;-1.290;2024-01-25T03:39:20;12;8;
28026;PMS5003;15344;52.342;-1.290;2024-01-25T03:41:46;13;8;
28026;PMS5003;15344;52.342;-1.290;2024-01-25T03:44:11;14;7;
28026;PMS5003;15344;52.342;-1.290;2024-01-25T03:46:37;10;8;
28026;PMS5003;15344;52.342;-1.290;2024-01-25T03:49:02;10;7;
28026;PMS5003;15344;52.342;-1.290;2024-01-25T03:51:28;8;7;
28026;PMS5003;15344;52.342;-1.290;2024-01-25T03:53:54;10;8;
28026;PMS5003;15344;52.342;-1.290;2024-01-25T03:56:19;10;8;
28026;PMS5003;15344;52.342;-1.290;2024-01-25T03:58:45;11;7;
28026;PMS5003;15344;52.342;-1.290;2024-01-25T04:01:09;16;9;
28026;PMS5003;15344;52.342;-1.290;2024-01-25T04:03:35;6;5;
28026;PMS5003;15344;52.342;-1.290;2024-01-25T04:06:01;9;8;
28026;PMS5003;15344;52.342;-1.290;2024-01-25T04:08:26;12;9;
28026;PMS5003;15344;52.342;-1.290;2024-01-25T04:10:51;11;9;
28026;PMS5003;15344;52.342;-1.290;2024-01-25T04:13:16;10;8;
28026;PMS5003;15344;52.342;-1.290;2024-01-25T04:15:42;21;9;
28026;PMS5003;15344;52.342;-1.290;2024-01-25T04:18:07;8;8;
28026;PMS5003;15344;52.342;-1.290;2024-01-25T04:20:32;17;8;
28026;PMS5003;15344;52.342;-1.290;2024-01-25T04:22:58;14;9;
28026;PMS5003;15344;52.342;-1.290;2024-01-25T04:25:23;18;9;
28026;PMS5003;15344;52.342;-1.290;2024-01-25T04:27:49;16;12;
28026;PMS5003;15344;52.342;-1.290;2024-01-25T04:30:14;11;9;
28026;PMS5003;15344;52.342;-1.290;2024-01-25T04:32:39;10;7;
28026;PMS5003;15344;52.342;-1.290;2024-01-25T04:35:05;12;7;
28026;PMS5003;15344;52.342;-1.290;2024-01-25T04:37:30;12;8;
28026;PMS5003;15344;52.342;-1.290;2024-01-25T04:39:55;14;10;
28026;PMS5003;15344;52.342;-1.290;2024-01-25T04:42:21;7;7;
28026;PMS5003;15344;52.342;-1.290;2024-01-25T04:44:46;15;7;
28026;PMS5003;15344;52.342;-1.290;2024-01-25T04:47:12;17;10;
28026;PMS5003;15344;52.342;-1.290;2024-01-25T04:49:37;11;6;
28026;PMS5003;15344;52.342;-1.290;2024-01-25T04:52:03;12;8;
28026;PMS5003;15344;52.342;-1.290;2024-01-25T04:54:28;12;6;
28026;PMS5003;15344;52.342;-1.290;2024-01-25T04:56:54;14;6;
28026;PMS5003;15344;52.342;-1.290;2024-01-25T04:59:19;12;9;
28026;PMS5003;15344;52.342;-1.290;2024-01-25T05:01:44;14;5;
28026;PMS5003;15344;52.342;-1.290;2024-01-25T05:04:09;7;6;
28026;PMS5003;15344;52.342;-1.290;2024-01-25T05:06:35;11;7;
28026;PMS5003;15344;52.342;-1.290;2024-01-25T05:09:00;10;7;
28026;PMS5003;15344;52.342;-1.290;2024-01-25T05:11:26;11;6;
28026;PMS5003;15344;52.342;-1.290;2024-01-25T05:13:51;6;5;
28026;PMS5003;15344;52.342;-1.290;2024-01-25T05:16:16;13;8;
28026;PMS5003;15344;52.342;-1.290;2024-01-25T05:18:42;12;8;
28026;PMS5003;15344;52.342;-1.290;2024-01-25T05:21:07;11;6;
28026;PMS5003;15344;52.342;-1.290;2024-01-25T05:23:32;9;5;
28026;PMS5003;15344;52.342;-1.290;2024-01-25T05:25:58;8;6;
28026;PMS5003;15344;52.342;-1.290;2024-01-25T05:28:23;11;6;
28026;PMS5003;15344;52.342;-1.290;2024-01-25T05:30:48;14;6;
28026;PMS5003;15344;52.342;-1.290;2024-01-25T05:33:14;11;6;
28026;PMS5003;15344;52.342;-1.290;2024-01-25T05:35:39;7;5;
28026;PMS5003;15344;52.342;-1.290;2024-01-25T05:38:04;11;7;
28026;PMS5003;15344;52.342;-1.290;2024-01-25T05:40:30;9;8;
28026;PMS5003;15344;52.342;-1.290;2024-01-25T05:42:55;8;5;
28026;PMS5003;15344;52.342;-1.290;2024-01-25T05:45:20;17;9;
28026;PMS5003;15344;52.342;-1.290;2024-01-25T05:47:45;18;5;
28026;PMS5003;15344;52.342;-1.290;2024-01-25T05:50:11;5;3;
28026;PMS5003;15344;52.342;-1.290;2024-01-25T05:52:36;8;3;
28026;PMS5003;15344;52.342;-1.290;2024-01-25T05:55:01;13;6;
28026;PMS5003;15344;52.342;-1.290;2024-01-25T05:57:27;12;5;
28026;PMS5003;15344;52.342;-1.290;2024-01-25T05:59:52;8;6;
28026;PMS5003;15344;52.342;-1.290;2024-01-25T06:02:17;12;5;
28026;PMS5003;15344;52.342;-1.290;2024-01-25T06:04:43;10;4;
28026;PMS5003;15344;52.342;-1.290;2024-01-25T06:07:08;9;5;
28026;PMS5003;15344;52.342;-1.290;2024-01-25T06:09:34;12;5;
28026;PMS5003;15344;52.342;-1.290;2024-01-25T06:11:59;12;6;
28026;PMS5003;15344;52.342;-1.290;2024-01-25T06:14:25;16;9;
28026;PMS5003;15344;52.342;-1.290;2024-01-25T06:16:50;7;5;
28026;PMS5003;15344;52.342;-1.290;2024-01-25T06:19:15;8;5;
28026;PMS5003;15344;52.342;-1.290;2024-01-25T06:21:41;10;4;
28026;PMS5003;15344;52.342;-1.290;2024-01-25T06:24:06;10;7;
28026;PMS5003;15344;52.342;-1.290;2024-01-25T06:26:32;10;4;
28026;PMS5003;15344;52.342;-1.290;2024-01-25T06:28:57;10;8;
28026;PMS5003;15344;52.342;-1.290;2024-01-25T06:31:22;11;6;
28026;PMS5003;15344;52.342;-1.290;2024-01-25T06:33:48;11;6;
28026;PMS5003;15344;52.342;-1.290;2024-01-25T06:36:13;12;6;
28026;PMS5003;15344;52.342;-1.290;2024-01-25T06:38:38;9;5;
28026;PMS5003;15344;52.342;-1.290;2024-01-25T06:41:04;5;5;
28026;PMS5003;15344;52.342;-1.290;2024-01-25T06:43:29;11;4;
28026;PMS5003;15344;52.342;-1.290;2024-01-25T06:45:54;7;5;
28026;PMS5003;15344;52.342;-1.290;2024-01-25T06:48:19;8;5;
28026;PMS5003;15344;52.342;-1.290;2024-01-25T06:50:45;8;4;
28026;PMS5003;15344;52.342;-1.290;2024-01-25T06:53:10;8;4;
28026;PMS5003;15344;52.342;-1.290;2024-01-25T06:55:36;4;4;
28026;PMS5003;15344;52.342;-1.290;2024-01-25T06:58:01;4;4;
28026;PMS5003;15344;52.342;-1.290;2024-01-25T07:00:26;4;4;
28026;PMS5003;15344;52.342;-1.290;2024-01-25T07:02:52;10;7;
28026;PMS5003;15344;52.342;-1.290;2024-01-25T07:05:17;8;5;
28026;PMS5003;15344;52.342;-1.290;2024-01-25T07:07:43;9;4;
28026;PMS5003;15344;52.342;-1.290;2024-01-25T07:10:08;5;5;
28026;PMS5003;15344;52.342;-1.290;2024-01-25T07:12:34;6;6;
28026;PMS5003;15344;52.342;-1.290;2024-01-25T07:14:59;6;5;
28026;PMS5003;15344;52.342;-1.290;2024-01-25T07:17:24;7;5;
28026;PMS5003;15344;52.342;-1.290;2024-01-25T07:19:50;9;6;
28026;PMS5003;15344;52.342;-1.290;2024-01-25T07:22:16;8;7;
28026;PMS5003;15344;52.342;-1.290;2024-01-25T07:24:41;16;6;
28026;PMS5003;15344;52.342;-1.290;2024-01-25T07:27:06;13;8;
28026;PMS5003;15344;52.342;-1.290;2024-01-25T07:29:31;9;7;
28026;PMS5003;15344;52.342;-1.290;2024-01-25T07:31:57;11;8;
28026;PMS5003;15344;52.342;-1.290;2024-01-25T07:34:22;13;10;
28026;PMS5003;15344;52.342;-1.290;2024-01-25T07:36:47;8;8;
28026;PMS5003;15344;52.342;-1.290;2024-01-25T07:39:13;13;7;
28026;PMS5003;15344;52.342;-1.290;2024-01-25T07:41:38;12;11;
28026;PMS5003;15344;52.342;-1.290;2024-01-25T07:44:03;14;9;
28026;PMS5003;15344;52.342;-1.290;2024-01-25T07:46:29;12;7;
28026;PMS5003;15344;52.342;-1.290;2024-01-25T07:48:54;8;7;
28026;PMS5003;15344;52.342;-1.290;2024-01-25T07:51:19;11;8;
28026;PMS5003;15344;52.342;-1.290;2024-01-25T07:53:44;11;9;
28026;PMS5003;15344;52.342;-1.290;2024-01-25T07:56:10;9;7;
28026;PMS5003;15344;52.342;-1.290;2024-01-25T07:58:35;15;10;
28026;PMS5003;15344;52.342;-1.290;2024-01-25T08:01:02;11;10;
28026;PMS5003;15344;52.342;-1.290;2024-01-25T08:03:26;9;9;
28026;PMS5003;15344;52.342;-1.290;2024-01-25T08:05:51;10;8;
28026;PMS5003;15344;52.342;-1.290;2024-01-25T08:08:17;10;9;
28026;PMS5003;15344;52.342;-1.290;2024-01-25T08:10:42;8;6;
28026;PMS5003;15344;52.342;-1.290;2024-01-25T08:13:07;9;7;
28026;PMS5003;15344;52.342;-1.290;2024-01-25T08:15:32;11;7;
28026;PMS5003;15344;52.342;-1.290;2024-01-25T08:17:58;9;8;
28026;PMS5003;15344;52.342;-1.290;2024-01-25T08:20:23;7;7;
28026;PMS5003;15344;52.342;-1.290;2024-01-25T08:22:49;13;9;
28026;PMS5003;15344;52.342;-1.290;2024-01-25T08:25:15;10;10;
28026;PMS5003;15344;52.342;-1.290;2024-01-25T08:27:39;9;9;
28026;PMS5003;15344;52.342;-1.290;2024-01-25T08:30:05;14;11;
28026;PMS5003;15344;52.342;-1.290;2024-01-25T08:32:30;9;8;
28026;PMS5003;15344;52.342;-1.290;2024-01-25T08:34:55;11;9;
28026;PMS5003;15344;52.342;-1.290;2024-01-25T08:37:24;9;8;
28026;PMS5003;15344;52.342;-1.290;2024-01-25T08:39:46;11;10;
28026;PMS5003;15344;52.342;-1.290;2024-01-25T08:42:11;7;6;
28026;PMS5003;15344;52.342;-1.290;2024-01-25T08:44:37;16;9;
28026;PMS5003;15344;52.342;-1.290;2024-01-25T08:47:02;13;9;
28026;PMS5003;15344;52.342;-1.290;2024-01-25T08:49:26;7;7;
28026;PMS5003;15344;52.342;-1.290;2024-01-25T08:51:52;7;6;
28026;PMS5003;15344;52.342;-1.290;2024-01-25T08:54:17;9;6;
28026;PMS5003;15344;52.342;-1.290;2024-01-25T08:56:42;6;6;
28026;PMS5003;15344;52.342;-1.290;2024-01-25T08:59:08;16;10;
28026;PMS5003;15344;52.342;-1.290;2024-01-25T09:01:33;5;5;
28026;PMS5003;15344;52.342;-1.290;2024-01-25T09:03:58;6;5;
28026;PMS5003;15344;52.342;-1.290;2024-01-25T09:06:24;16;9;
28026;PMS5003;15344;52.342;-1.290;2024-01-25T09:08:49;14;9;
28026;PMS5003;15344;52.342;-1.290;2024-01-25T09:11:14;11;8;
28026;PMS5003;15344;52.342;-1.290;2024-01-25T09:13:40;11;7;
28026;PMS5003;15344;52.342;-1.290;2024-01-25T09:16:06;7;6;
28026;PMS5003;15344;52.342;-1.290;2024-01-25T09:18:30;13;10;
28026;PMS5003;15344;52.342;-1.290;2024-01-25T09:20:56;9;7;
28026;PMS5003;15344;52.342;-1.290;2024-01-25T09:23:21;8;6;
28026;PMS5003;15344;52.342;-1.290;2024-01-25T09:25:46;6;6;
28026;PMS5003;15344;52.342;-1.290;2024-01-25T09:28:12;4;3;
28026;PMS5003;15344;52.342;-1.290;2024-01-25T09:30:37;8;6;
28026;PMS5003;15344;52.342;-1.290;2024-01-25T09:33:02;9;6;
28026;PMS5003;15344;52.342;-1.290;2024-01-25T09:35:28;11;8;
28026;PMS5003;15344;52.342;-1.290;2024-01-25T09:37:53;8;8;
28026;PMS5003;15344;52.342;-1.290;2024-01-25T09:40:18;10;7;
28026;PMS5003;15344;52.342;-1.290;2024-01-25T09:42:43;9;7;
28026;PMS5003;15344;52.342;-1.290;2024-01-25T09:45:08;8;6;
28026;PMS5003;15344;52.342;-1.290;2024-01-25T09:47:34;8;7;
28026;PMS5003;15344;52.342;-1.290;2024-01-25T09:49:59;8;7;
28026;PMS5003;15344;52.342;-1.290;2024-01-25T09:52:25;12;9;
28026;PMS5003;15344;52.342;-1.290;2024-01-25T09:54:50;7;6;
28026;PMS5003;15344;52.342;-1.290;2024-01-25T09:57:15;7;7;
28026;PMS5003;15344;52.342;-1.290;2024-01-25T09:59:40;10;9;
28026;PMS5003;15344;52.342;-1.290;2024-01-25T10:02:05;13;10;
28026;PMS5003;15344;52.342;-1.290;2024-01-25T10:04:31;8;4;
28026;PMS5003;15344;52.342;-1.290;2024-01-25T10:06:57;13;9;
28026;PMS5003;15344;52.342;-1.290;2024-01-25T10:09:22;8;7;
28026;PMS5003;15344;52.342;-1.290;2024-01-25T10:11:47;8;7;
28026;PMS5003;15344;52.342;-1.290;2024-01-25T10:14:13;12;8;
28026;PMS5003;15344;52.342;-1.290;2024-01-25T10:16:38;12;9;
28026;PMS5003;15344;52.342;-1.290;2024-01-25T10:19:05;10;9;
28026;PMS5003;15344;52.342;-1.290;2024-01-25T10:21:29;12;10;
28026;PMS5003;15344;52.342;-1.290;2024-01-25T10:23:54;9;9;
28026;PMS5003;15344;52.342;-1.290;2024-01-25T10:26:19;10;10;
28026;PMS5003;15344;52.342;-1.290;2024-01-25T10:31:10;10;9;
28026;PMS5003;15344;52.342;-1.290;2024-01-25T10:33:35;9;9;
28026;PMS5003;15344;52.342;-1.290;2024-01-25T10:36:01;11;9;
28026;PMS5003;15344;52.342;-1.290;2024-01-25T10:38:28;13;8;
28026;PMS5003;15344;52.342;-1.290;2024-01-25T10:40:52;10;8;
28026;PMS5003;15344;52.342;-1.290;2024-01-25T10:43:18;12;10;
28026;PMS5003;15344;52.342;-1.290;2024-01-25T10:45:43;10;6;
28026;PMS5003;15344;52.342;-1.290;2024-01-25T10:48:09;10;7;
28026;PMS5003;15344;52.342;-1.290;2024-01-25T10:50:35;9;6;
28026;PMS5003;15344;52.342;-1.290;2024-01-25T10:53:00;8;8;
28026;PMS5003;15344;52.342;-1.290;2024-01-25T10:55:25;11;9;
28026;PMS5003;15344;52.342;-1.290;2024-01-25T10:57:51;9;8;
28026;PMS5003;15344;52.342;-1.290;2024-01-25T11:00:17;12;8;
28026;PMS5003;15344;52.342;-1.290;2024-01-25T11:02:42;9;8;
28026;PMS5003;15344;52.342;-1.290;2024-01-25T11:05:08;16;8;
28026;PMS5003;15344;52.342;-1.290;2024-01-25T11:09:58;18;10;
28026;PMS5003;15344;52.342;-1.290;2024-01-25T11:12:23;8;7;
28026;PMS5003;15344;52.342;-1.290;2024-01-25T11:14:53;12;11;
28026;PMS5003;15344;52.342;-1.290;2024-01-25T11:17:14;10;9;
28026;PMS5003;15344;52.342;-1.290;2024-01-25T11:19:39;11;8;
28026;PMS5003;15344;52.342;-1.290;2024-01-25T11:22:05;6;6;
28026;PMS5003;15344;52.342;-1.290;2024-01-25T11:24:38;6;4;
28026;PMS5003;15344;52.342;-1.290;2024-01-25T11:26:56;7;5;
28026;PMS5003;15344;52.342;-1.290;2024-01-25T11:29:21;9;6;
28026;PMS5003;15344;52.342;-1.290;2024-01-25T11:31:47;3;3;
28026;PMS5003;15344;52.342;-1.290;2024-01-25T11:34:12;4;4;
28026;PMS5003;15344;52.342;-1.290;2024-01-25T11:36:36;7;7;
28026;PMS5003;15344;52.342;-1.290;2024-01-25T11:39:02;5;5;
28026;PMS5003;15344;52.342;-1.290;2024-01-25T11:41:27;4;4;
28026;PMS5003;15344;52.342;-1.290;2024-01-25T11:43:52;6;3;
28026;PMS5003;15344;52.342;-1.290;2024-01-25T11:46:18;4;3;
28026;PMS5003;15344;52.342;-1.290;2024-01-25T11:48:43;5;4;
28026;PMS5003;15344;52.342;-1.290;2024-01-25T11:51:08;12;4;
28026;PMS5003;15344;52.342;-1.290;2024-01-25T11:53:33;4;4;
28026;PMS5003;15344;52.342;-1.290;2024-01-25T11:55:59;5;3;
28026;PMS5003;15344;52.342;-1.290;2024-01-25T11:58:24;3;3;
28026;PMS5003;15344;52.342;-1.290;2024-01-25T12:00:50;3;2;
28026;PMS5003;15344;52.342;-1.290;2024-01-25T12:03:16;3;3;
28026;PMS5003;15344;52.342;-1.290;2024-01-25T12:05:41;4;3;
28026;PMS5003;15344;52.342;-1.290;2024-01-25T12:08:08;1;1;
28026;PMS5003;15344;52.342;-1.290;2024-01-25T12:10:31;4;4;
28026;PMS5003;15344;52.342;-1.290;2024-01-25T12:12:57;1;1;
28026;PMS5003;15344;52.342;-1.290;2024-01-25T12:15:22;4;3;
28026;PMS5003;15344;52.342;-1.290;2024-01-25T12:17:47;3;2;
28026;PMS5003;15344;52.342;-1.290;2024-01-25T12:20:13;1;1;
28026;PMS5003;15344;52.342;-1.290;2024-01-25T12:22:38;0;0;
28026;PMS5003;15344;52.342;-1.290;2024-01-25T12:25:06;1;1;
28026;PMS5003;15344;52.342;-1.290;2024-01-25T12:27:29;2;1;
28026;PMS5003;15344;52.342;-1.290;2024-01-25T12:29:54;1;0;
28026;PMS5003;15344;52.342;-1.290;2024-01-25T12:32:19;2;0;
28026;PMS5003;15344;52.342;-1.290;2024-01-25T12:37:10;1;0;
28026;PMS5003;15344;52.342;-1.290;2024-01-25T12:39:35;2;0;
28026;PMS5003;15344;52.342;-1.290;2024-01-25T12:42:00;0;0;
28026;PMS5003;15344;52.342;-1.290;2024-01-25T12:44:25;2;2;
28026;PMS5003;15344;52.342;-1.290;2024-01-25T12:46:51;0;0;
28026;PMS5003;15344;52.342;-1.290;2024-01-25T12:49:16;1;1;
28026;PMS5003;15344;52.342;-1.290;2024-01-25T12:51:41;1;1;
28026;PMS5003;15344;52.342;-1.290;2024-01-25T12:54:07;2;1;
28026;PMS5003;15344;52.342;-1.290;2024-01-25T12:56:32;1;1;
28026;PMS5003;15344;52.342;-1.290;2024-01-25T12:58:57;1;1;
28026;PMS5003;15344;52.342;-1.290;2024-01-25T13:01:23;1;1;
28026;PMS5003;15344;52.342;-1.290;2024-01-25T13:03:48;1;1;
28026;PMS5003;15344;52.342;-1.290;2024-01-25T13:06:13;1;1;
28026;PMS5003;15344;52.342;-1.290;2024-01-25T13:08:39;4;1;
28026;PMS5003;15344;52.342;-1.290;2024-01-25T13:11:04;1;0;
28026;PMS5003;15344;52.342;-1.290;2024-01-25T13:13:29;2;1;
28026;PMS5003;15344;52.342;-1.290;2024-01-25T13:15:54;2;2;
28026;PMS5003;15344;52.342;-1.290;2024-01-25T13:18:20;5;4;
28026;PMS5003;15344;52.342;-1.290;2024-01-25T13:20:45;3;3;
28026;PMS5003;15344;52.342;-1.290;2024-01-25T13:23:10;3;1;
28026;PMS5003;15344;52.342;-1.290;2024-01-25T13:25:35;4;2;
28026;PMS5003;15344;52.342;-1.290;2024-01-25T13:28:06;1;1;
28026;PMS5003;15344;52.342;-1.290;2024-01-25T13:30:26;5;3;
28026;PMS5003;15344;52.342;-1.290;2024-01-25T13:32:51;6;3;
28026;PMS5003;15344;52.342;-1.290;2024-01-25T13:35:17;5;2;
28026;PMS5003;15344;52.342;-1.290;2024-01-25T13:37:42;3;3;
28026;PMS5003;15344;52.342;-1.290;2024-01-25T13:40:08;4;4;
28026;PMS5003;15344;52.342;-1.290;2024-01-25T13:42:33;5;3;
28026;PMS5003;15344;52.342;-1.290;2024-01-25T13:44:58;5;3;
28026;PMS5003;15344;52.342;-1.290;2024-01-25T13:47:23;5;3;
28026;PMS5003;15344;52.342;-1.290;2024-01-25T13:49:48;2;2;
28026;PMS5003;15344;52.342;-1.290;2024-01-25T13:52:16;1;1;
28026;PMS5003;15344;52.342;-1.290;2024-01-25T13:54:39;4;3;
28026;PMS5003;15344;52.342;-1.290;2024-01-25T13:57:05;5;2;
28026;PMS5003;15344;52.342;-1.290;2024-01-25T13:59:30;3;3;
28026;PMS5003;15344;52.342;-1.290;2024-01-25T14:01:55;4;3;
28026;PMS5003;15344;52.342;-1.290;2024-01-25T14:04:21;2;2;
28026;PMS5003;15344;52.342;-1.290;2024-01-25T14:06:46;1;1;
28026;PMS5003;15344;52.342;-1.290;2024-01-25T14:09:11;3;2;
28026;PMS5003;15344;52.342;-1.290;2024-01-25T14:11:37;5;3;
28026;PMS5003;15344;52.342;-1.290;2024-01-25T14:14:02;5;4;
28026;PMS5003;15344;52.342;-1.290;2024-01-25T14:16:27;5;2;
28026;PMS5003;15344;52.342;-1.290;2024-01-25T14:18:52;1;1;
28026;PMS5003;15344;52.342;-1.290;2024-01-25T14:21:18;4;3;
28026;PMS5003;15344;52.342;-1.290;2024-01-25T14:23:43;5;2;
28026;PMS5003;15344;52.342;-1.290;2024-01-25T14:26:08;3;2;
28026;PMS5003;15344;52.342;-1.290;2024-01-25T14:28:34;1;1;
28026;PMS5003;15344;52.342;-1.290;2024-01-25T14:30:59;2;2;
28026;PMS5003;15344;52.342;-1.290;2024-01-25T14:33:24;0;0;
28026;PMS5003;15344;52.342;-1.290;2024-01-25T14:35:50;5;3;
28026;PMS5003;15344;52.342;-1.290;2024-01-25T14:38:15;1;1;
28026;PMS5003;15344;52.342;-1.290;2024-01-25T14:40:40;1;1;
28026;PMS5003;15344;52.342;-1.290;2024-01-25T14:43:05;1;1;
28026;PMS5003;15344;52.342;-1.290;2024-01-25T14:45:31;4;1;
28026;PMS5003;15344;52.342;-1.290;2024-01-25T14:47:56;6;2;
28026;PMS5003;15344;52.342;-1.290;2024-01-25T14:50:22;1;1;
28026;PMS5003;15344;52.342;-1.290;2024-01-25T14:52:47;1;1;
28026;PMS5003;15344;52.342;-1.290;2024-01-25T14:55:12;4;4;
28026;PMS5003;15344;52.342;-1.290;2024-01-25T14:57:38;2;2;
28026;PMS5003;15344;52.342;-1.290;2024-01-25T15:00:03;3;3;
28026;PMS5003;15344;52.342;-1.290;2024-01-25T15:02:28;2;0;
28026;PMS5003;15344;52.342;-1.290;2024-01-25T15:04:53;1;1;
28026;PMS5003;15344;52.342;-1.290;2024-01-25T15:07:19;1;1;
28026;PMS5003;15344;52.342;-1.290;2024-01-25T15:09:44;2;2;
28026;PMS5003;15344;52.342;-1.290;2024-01-25T15:12:09;2;1;
28026;PMS5003;15344;52.342;-1.290;2024-01-25T15:14:34;1;1;
28026;PMS5003;15344;52.342;-1.290;2024-01-25T15:17:00;4;1;
28026;PMS5003;15344;52.342;-1.290;2024-01-25T15:19:25;2;0;
28026;PMS5003;15344;52.342;-1.290;2024-01-25T15:21:50;1;1;
28026;PMS5003;15344;52.342;-1.290;2024-01-25T15:24:16;2;2;
28026;PMS5003;15344;52.342;-1.290;2024-01-25T15:26:41;1;1;
28026;PMS5003;15344;52.342;-1.290;2024-01-25T15:29:06;2;1;
28026;PMS5003;15344;52.342;-1.290;2024-01-25T15:31:31;1;1;
28026;PMS5003;15344;52.342;-1.290;2024-01-25T15:33:57;3;2;
28026;PMS5003;15344;52.342;-1.290;2024-01-25T15:36:22;5;1;
28026;PMS5003;15344;52.342;-1.290;2024-01-25T15:38:47;3;2;
28026;PMS5003;15344;52.342;-1.290;2024-01-25T15:41:13;3;3;
28026;PMS5003;15344;52.342;-1.290;2024-01-25T15:43:38;2;2;
28026;PMS5003;15344;52.342;-1.290;2024-01-25T15:46:03;2;2;
28026;PMS5003;15344;52.342;-1.290;2024-01-25T15:48:29;4;3;
28026;PMS5003;15344;52.342;-1.290;2024-01-25T15:50:54;1;0;
28026;PMS5003;15344;52.342;-1.290;2024-01-25T15:53:19;4;2;
28026;PMS5003;15344;52.342;-1.290;2024-01-25T15:55:44;4;2;
28026;PMS5003;15344;52.342;-1.290;2024-01-25T15:58:10;4;2;
28026;PMS5003;15344;52.342;-1.290;2024-01-25T16:00:35;1;1;
28026;PMS5003;15344;52.342;-1.290;2024-01-25T16:03:00;3;0;
28026;PMS5003;15344;52.342;-1.290;2024-01-25T16:05:25;4;3;
28026;PMS5003;15344;52.342;-1.290;2024-01-25T16:07:51;2;1;
28026;PMS5003;15344;52.342;-1.290;2024-01-25T16:10:17;1;1;
28026;PMS5003;15344;52.342;-1.290;2024-01-25T16:12:41;5;2;
28026;PMS5003;15344;52.342;-1.290;2024-01-25T16:15:07;0;0;
28026;PMS5003;15344;52.342;-1.290;2024-01-25T16:17:32;4;1;
28026;PMS5003;15344;52.342;-1.290;2024-01-25T16:19:57;1;1;